ADDS METAR Data INFO
IDs: Format: Raw Decoded Include TAF

Data at: 0706 UTC 19 Oct 2017

KRTN 190653Z AUTO 02006KT 10SM CLR 04/M03 A3022 RMK AO2 SLP167 T00441033 402610006
KRTN 190553Z AUTO 03007KT 10SM CLR 06/M03 A3022 RMK AO2 SLP168 T00561033 10206 20044 50002
KRTN 190453Z AUTO 01007KT 10SM CLR 09/M04 A3022 RMK AO2 SLP166 T00891044
KRTN 190353Z AUTO 03007KT 10SM CLR 10/M05 A3022 RMK AO2 SLP179 T01001050
KRTN 190253Z AUTO 02008KT 10SM CLR 11/M05 A3021 RMK AO2 SLP191 T01061050 51014
KRTN 190153Z AUTO 01009KT 10SM CLR 13/M06 A3021 RMK AO2 SLP195 T01331061
KRTN 190053Z AUTO 02008KT 10SM CLR 16/M04 A3019 RMK AO2 SLP179 T01561044
KRTN 182353Z AUTO 09005KT 10SM CLR 21/M05 A3016 RMK AO2 SLP161 T02111050 10261 20211 53002
KRTN 182253Z AUTO 10006KT 10SM CLR 24/M09 A3015 RMK AO2 SLP150 T02391089
KRTN 182153Z AUTO 06004KT 10SM CLR 26/M11 A3016 RMK AO2 SLP151 T02561106
KRTN 182053Z AUTO 08006KT 10SM CLR 26/M09 A3016 RMK AO2 SLP151 T02561089 56016
KRTN 181953Z AUTO 10004KT 10SM CLR 25/M10 A3017 RMK AO2 SLP155 T02501100
KRTN 181853Z AUTO 00000KT 10SM CLR 24/M10 A3019 RMK AO2 SLP162 T02441100
KRTN 181753Z AUTO 00000KT 10SM CLR 23/M09 A3021 RMK AO2 SLP168 T02331094 10233 20011 51003
KRTN 181653Z AUTO VRB04KT 10SM CLR 21/M08 A3021 RMK AO2 SLP173 T02111078
KRTN 181553Z AUTO 07003KT 10SM CLR 14/M01 A3021 RMK AO2 SLP182 T01391011
KRTN 181453Z AUTO 07006KT 10SM CLR 07/M02 A3020 RMK AO2 SLP187 T00671022 53010
KRTN 181353Z AUTO 05008KT 10SM CLR 02/M04 A3018 RMK AO2 SLP183 T00221044
KRTN 181253Z AUTO 06007KT 10SM CLR 03/M06 A3017 RMK AO2 SLP179 T00281056
KRTN 181153Z AUTO 04008KT 10SM CLR 02/M05 A3016 RMK AO2 SLP164 T00171050 10061 20006 53001
KRTN 181053Z AUTO 03007KT 10SM CLR 03/M04 A3016 RMK AO2 SLP151 T00281044
KRTN 180953Z AUTO 03007KT 10SM CLR 01/M04 A3015 RMK AO2 SLP154 T00061039
KRTN 180853Z AUTO 05006KT 10SM CLR 01/M03 A3016 RMK AO2 SLP155 T00061033 57007
KRTN 180753Z AUTO 05006KT 10SM CLR 02/M03 A3017 RMK AO2 SLP157 T00171033
KRTN 180653Z AUTO 08003KT 10SM CLR 03/M03 A3018 RMK AO2 SLP156 T00331028 402501011
KRTN 180553Z AUTO 04004KT 10SM CLR 04/M03 A3019 RMK AO2 SLP162 T00391028 10200 20039 58003
KRTN 180453Z AUTO 06008KT 10SM CLR 04/M02 A3020 RMK AO2 SLP169 T00441022
KRTN 180353Z AUTO 03007KT 10SM CLR 07/M03 A3021 RMK AO2 SLP178 T00671028
KRTN 180253Z AUTO 00000KT 10SM CLR 11/M04 A3020 RMK AO2 SLP179 T01061044 51010
KRTN 180153Z AUTO 25006KT 10SM CLR 14/M08 A3020 RMK AO2 SLP183 T01441078
KRTN 180053Z AUTO 31005KT 10SM CLR 13/M06 A3018 RMK AO2 SLP193 T01331061
KRTN 172353Z AUTO 21006KT 10SM CLR 20/M07 A3017 RMK AO2 SLP172 T02001067 10250 20200 56004
KRTN 172253Z AUTO 19007KT 10SM CLR 23/M12 A3017 RMK AO2 SLP160 T02331117
KRTN 172153Z AUTO 18008KT 10SM CLR 24/M11 A3017 RMK AO2 SLP162 T02391111
KRTN 172053Z AUTO 14009KT 10SM CLR 24/M11 A3018 RMK AO2 SLP162 T02441106 56026
KRTN 171953Z AUTO 08004KT 10SM CLR 24/M10 A3021 RMK AO2 SLP171 T02441100